CheckWX is a tool to help pilots better visualize weather data.  It is not intended as a substitute for an official pre-flight weather briefing.

08:43:37 UTC

KMOR METAR
Moore-Murrell Airport
Morristown, Tennessee, USA
Current

29 mins ago

KMOR 170815Z AUTO 00000KT 10SM SCT042 BKN047 OVC085 22/21 A3007 RMK A01
Observed
Jul-17 @ 08:15 UTC
Visibility
10 SM
Flight Rules
VFR
Cloud Levels
  • Scattered at 4,200' AGL
  • Broken at 4,700' AGL
  • Overcast at 8,500' AGL
Temperature
22°C / 72°F
Dewpoint
21°C / 70°F
Humidity
94%
Altimeter
30.07" Hg
Pressure
1018.32 hPa
Previous

49 mins ago

KMOR 170755Z AUTO 00000KT 10SM BKN042 BKN050 OVC060 23/21 A3008 RMK A01
Observed
Jul-17 @ 07:55 UTC
Visibility
10 SM
Flight Rules
VFR
Cloud Levels
  • Broken at 4,200' AGL
  • Broken at 5,000' AGL
  • Overcast at 6,000' AGL
Temperature
23°C / 73°F
Dewpoint
21°C / 70°F
Humidity
89%
Altimeter
30.08" Hg
Pressure
1018.62 hPa
Previous

1 hour ago

KMOR 170735Z AUTO 00000KT 10SM BKN044 OVC060 23/21 A3008 RMK A01
Observed
Jul-17 @ 07:35 UTC
Visibility
10 SM
Flight Rules
VFR
Cloud Levels
  • Broken at 4,400' AGL
  • Overcast at 6,000' AGL
Temperature
23°C / 73°F
Dewpoint
21°C / 70°F
Humidity
89%
Altimeter
30.08" Hg
Pressure
1018.62 hPa